sensor_id;sensor_type;location;lat;lon;timestamp;pressure;altitude;pressure_sealevel;temperature;humidity
29239;BME280;16267;48.194;11.546;2023-06-04T00:01:43;95931.78;;;17.82;48.85
29239;BME280;16267;48.194;11.546;2023-06-04T00:04:11;95938.88;;;17.79;48.77
29239;BME280;16267;48.194;11.546;2023-06-04T00:06:37;95937.34;;;17.78;48.75
29239;BME280;16267;48.194;11.546;2023-06-04T00:09:03;95936.25;;;17.76;48.72
29239;BME280;16267;48.194;11.546;2023-06-04T00:11:29;95931.72;;;17.73;48.81
29239;BME280;16267;48.194;11.546;2023-06-04T00:13:54;95930.97;;;17.72;48.87
29239;BME280;16267;48.194;11.546;2023-06-04T00:16:20;95931.13;;;17.69;48.75
29239;BME280;16267;48.194;11.546;2023-06-04T00:18:49;95930.06;;;17.66;48.66
29239;BME280;16267;48.194;11.546;2023-06-04T00:21:15;95925.06;;;17.65;48.63
29239;BME280;16267;48.194;11.546;2023-06-04T00:23:40;95927.47;;;17.63;48.75
29239;BME280;16267;48.194;11.546;2023-06-04T00:26:06;95928.34;;;17.59;48.75
29239;BME280;16267;48.194;11.546;2023-06-04T00:28:32;95935.00;;;17.58;48.92
29239;BME280;16267;48.194;11.546;2023-06-04T00:30:58;95923.81;;;17.56;48.95
29239;BME280;16267;48.194;11.546;2023-06-04T00:33:23;95932.13;;;17.53;48.73
29239;BME280;16267;48.194;11.546;2023-06-04T00:35:49;95929.09;;;17.51;48.90
29239;BME280;16267;48.194;11.546;2023-06-04T00:38:15;95929.97;;;17.48;48.52
29239;BME280;16267;48.194;11.546;2023-06-04T00:40:41;95935.09;;;17.46;48.42
29239;BME280;16267;48.194;11.546;2023-06-04T00:43:06;95929.81;;;17.42;48.30
29239;BME280;16267;48.194;11.546;2023-06-04T00:45:32;95941.88;;;17.41;48.04
29239;BME280;16267;48.194;11.546;2023-06-04T00:47:58;95935.06;;;17.36;48.03
29239;BME280;16267;48.194;11.546;2023-06-04T00:50:24;95935.53;;;17.35;48.19
29239;BME280;16267;48.194;11.546;2023-06-04T00:52:50;95934.88;;;17.31;48.06
29239;BME280;16267;48.194;11.546;2023-06-04T00:55:17;95929.13;;;17.29;47.88
29239;BME280;16267;48.194;11.546;2023-06-04T00:57:44;95931.56;;;17.27;47.79
29239;BME280;16267;48.194;11.546;2023-06-04T01:00:10;95930.03;;;17.26;47.76
29239;BME280;16267;48.194;11.546;2023-06-04T01:02:38;95934.72;;;17.25;48.02
29239;BME280;16267;48.194;11.546;2023-06-04T01:07:56;95930.59;;;17.21;48.24
29239;BME280;16267;48.194;11.546;2023-06-04T01:10:22;95929.53;;;17.18;48.23
29239;BME280;16267;48.194;11.546;2023-06-04T01:12:48;95933.47;;;17.17;48.37
29239;BME280;16267;48.194;11.546;2023-06-04T01:15:14;95927.72;;;17.15;48.31
29239;BME280;16267;48.194;11.546;2023-06-04T01:17:43;95932.84;;;17.13;48.26
29239;BME280;16267;48.194;11.546;2023-06-04T01:20:33;95924.81;;;17.09;48.42
29239;BME280;16267;48.194;11.546;2023-06-04T01:25:41;95937.78;;;17.05;48.61
29239;BME280;16267;48.194;11.546;2023-06-04T01:28:11;95940.16;;;17.03;48.99
29239;BME280;16267;48.194;11.546;2023-06-04T01:30:42;95938.34;;;17.00;49.17
29239;BME280;16267;48.194;11.546;2023-06-04T01:33:10;95940.72;;;16.98;49.03
29239;BME280;16267;48.194;11.546;2023-06-04T01:35:37;95936.19;;;16.95;48.86
29239;BME280;16267;48.194;11.546;2023-06-04T01:38:03;95944.00;;;16.93;49.13
29239;BME280;16267;48.194;11.546;2023-06-04T01:40:29;95944.59;;;16.88;49.45
29239;BME280;16267;48.194;11.546;2023-06-04T01:42:55;95945.47;;;16.85;49.30
29239;BME280;16267;48.194;11.546;2023-06-04T01:45:26;95944.84;;;16.81;49.46
29239;BME280;16267;48.194;11.546;2023-06-04T01:47:53;95948.00;;;16.79;49.54
29239;BME280;16267;48.194;11.546;2023-06-04T01:50:19;95947.34;;;16.75;49.49
29239;BME280;16267;48.194;11.546;2023-06-04T01:52:45;95948.22;;;16.72;49.59
29239;BME280;16267;48.194;11.546;2023-06-04T01:55:13;95948.34;;;16.68;49.89
29239;BME280;16267;48.194;11.546;2023-06-04T01:57:44;95956.59;;;16.65;49.92
29239;BME280;16267;48.194;11.546;2023-06-04T02:00:12;95958.22;;;16.62;49.85
29239;BME280;16267;48.194;11.546;2023-06-04T02:02:43;95954.44;;;16.60;50.04
29239;BME280;16267;48.194;11.546;2023-06-04T02:05:10;95958.03;;;16.57;50.26
29239;BME280;16267;48.194;11.546;2023-06-04T02:07:42;95957.41;;;16.53;50.12
29239;BME280;16267;48.194;11.546;2023-06-04T02:10:15;95965.66;;;16.49;50.45
29239;BME280;16267;48.194;11.546;2023-06-04T02:15:19;95968.28;;;16.40;50.87
29239;BME280;16267;48.194;11.546;2023-06-04T02:17:45;95970.03;;;16.34;51.14
29239;BME280;16267;48.194;11.546;2023-06-04T02:20:11;95960.22;;;16.27;51.42
29239;BME280;16267;48.194;11.546;2023-06-04T02:22:37;95958.38;;;16.24;51.29
29239;BME280;16267;48.194;11.546;2023-06-04T02:25:05;95963.91;;;16.20;51.25
29239;BME280;16267;48.194;11.546;2023-06-04T02:27:31;95957.84;;;16.16;51.34
29239;BME280;16267;48.194;11.546;2023-06-04T02:29:56;95957.53;;;16.14;51.35
29239;BME280;16267;48.194;11.546;2023-06-04T02:32:22;95953.75;;;16.12;51.38
29239;BME280;16267;48.194;11.546;2023-06-04T02:34:48;95960.78;;;16.09;51.37
29239;BME280;16267;48.194;11.546;2023-06-04T02:37:14;95962.41;;;16.06;51.34
29239;BME280;16267;48.194;11.546;2023-06-04T02:39:40;95961.34;;;16.04;51.60
29239;BME280;16267;48.194;11.546;2023-06-04T02:42:07;95958.00;;;16.00;51.60
29239;BME280;16267;48.194;11.546;2023-06-04T02:44:32;95958.13;;;15.96;52.05
29239;BME280;16267;48.194;11.546;2023-06-04T02:46:58;95969.91;;;15.90;52.53
29239;BME280;16267;48.194;11.546;2023-06-04T02:49:24;95971.19;;;15.85;52.83
29239;BME280;16267;48.194;11.546;2023-06-04T02:51:50;95966.78;;;15.78;53.04
29239;BME280;16267;48.194;11.546;2023-06-04T02:54:16;95973.50;;;15.74;53.22
29239;BME280;16267;48.194;11.546;2023-06-04T02:56:42;95975.56;;;15.70;53.38
29239;BME280;16267;48.194;11.546;2023-06-04T02:59:10;95977.16;;;15.67;53.25
29239;BME280;16267;48.194;11.546;2023-06-04T03:01:35;95974.13;;;15.65;53.12
29239;BME280;16267;48.194;11.546;2023-06-04T03:04:02;95971.53;;;15.61;53.04
29239;BME280;16267;48.194;11.546;2023-06-04T03:06:30;95973.47;;;15.61;53.15
29239;BME280;16267;48.194;11.546;2023-06-04T03:08:58;95978.56;;;15.59;53.27
29239;BME280;16267;48.194;11.546;2023-06-04T03:11:24;95980.94;;;15.57;53.09
29239;BME280;16267;48.194;11.546;2023-06-04T03:13:50;95973.69;;;15.54;53.26
29239;BME280;16267;48.194;11.546;2023-06-04T03:16:18;95978.75;;;15.52;53.74
29239;BME280;16267;48.194;11.546;2023-06-04T03:18:44;95977.69;;;15.49;53.94
29239;BME280;16267;48.194;11.546;2023-06-04T03:21:11;95980.50;;;15.46;53.75
29239;BME280;16267;48.194;11.546;2023-06-04T03:23:40;95982.13;;;15.43;53.54
29239;BME280;16267;48.194;11.546;2023-06-04T03:26:06;95992.63;;;15.41;53.70
29239;BME280;16267;48.194;11.546;2023-06-04T03:28:33;95993.50;;;15.38;54.22
29239;BME280;16267;48.194;11.546;2023-06-04T03:30:59;95992.41;;;15.35;54.10
29239;BME280;16267;48.194;11.546;2023-06-04T03:33:25;95993.25;;;15.32;54.08
29239;BME280;16267;48.194;11.546;2023-06-04T03:35:52;95995.72;;;15.27;54.73
29239;BME280;16267;48.194;11.546;2023-06-04T03:38:18;96003.53;;;15.25;54.49
29239;BME280;16267;48.194;11.546;2023-06-04T03:40:45;95997.78;;;15.23;54.37
29239;BME280;16267;48.194;11.546;2023-06-04T03:43:12;96006.75;;;15.20;54.07
29239;BME280;16267;48.194;11.546;2023-06-04T03:45:37;96008.69;;;15.19;54.31
29239;BME280;16267;48.194;11.546;2023-06-04T03:48:03;96009.13;;;15.17;54.66
29239;BME280;16267;48.194;11.546;2023-06-04T03:50:29;96011.50;;;15.15;54.75
29239;BME280;16267;48.194;11.546;2023-06-04T03:52:55;96011.19;;;15.13;54.54
29239;BME280;16267;48.194;11.546;2023-06-04T03:55:21;96012.34;;;15.12;54.52
29239;BME280;16267;48.194;11.546;2023-06-04T03:57:48;96010.09;;;15.11;54.38
29239;BME280;16267;48.194;11.546;2023-06-04T04:00:14;96016.66;;;15.10;54.10
29239;BME280;16267;48.194;11.546;2023-06-04T04:02:41;96015.16;;;15.09;54.78
29239;BME280;16267;48.194;11.546;2023-06-04T04:05:07;96009.84;;;15.05;55.02
29239;BME280;16267;48.194;11.546;2023-06-04T04:07:35;96011.03;;;15.04;54.86
29239;BME280;16267;48.194;11.546;2023-06-04T04:10:01;96005.63;;;15.04;54.87
29239;BME280;16267;48.194;11.546;2023-06-04T04:12:27;96008.31;;;15.04;54.97
29239;BME280;16267;48.194;11.546;2023-06-04T04:14:53;96014.50;;;15.05;54.68
29239;BME280;16267;48.194;11.546;2023-06-04T04:17:18;96012.56;;;15.05;54.59
29239;BME280;16267;48.194;11.546;2023-06-04T04:19:44;96015.25;;;15.05;54.36
29239;BME280;16267;48.194;11.546;2023-06-04T04:22:11;96015.56;;;15.07;54.83
29239;BME280;16267;48.194;11.546;2023-06-04T04:24:37;96016.34;;;15.08;54.72
29239;BME280;16267;48.194;11.546;2023-06-04T04:27:05;96021.31;;;15.09;54.50
29239;BME280;16267;48.194;11.546;2023-06-04T04:29:31;96018.19;;;15.11;54.48
29239;BME280;16267;48.194;11.546;2023-06-04T04:32:01;96024.34;;;15.11;54.41
29239;BME280;16267;48.194;11.546;2023-06-04T04:34:49;96023.16;;;15.12;54.26
29239;BME280;16267;48.194;11.546;2023-06-04T04:37:17;96023.50;;;15.14;54.17
29239;BME280;16267;48.194;11.546;2023-06-04T04:39:46;96026.94;;;15.15;53.97
29239;BME280;16267;48.194;11.546;2023-06-04T04:42:12;96033.91;;;15.16;54.11
29239;BME280;16267;48.194;11.546;2023-06-04T04:44:38;96035.41;;;15.17;54.05
29239;BME280;16267;48.194;11.546;2023-06-04T04:47:04;96032.25;;;15.18;53.80
29239;BME280;16267;48.194;11.546;2023-06-04T04:49:29;96032.59;;;15.21;53.81
29239;BME280;16267;48.194;11.546;2023-06-04T04:51:55;96044.50;;;15.23;53.76
29239;BME280;16267;48.194;11.546;2023-06-04T04:54:21;96037.06;;;15.27;53.65
29239;BME280;16267;48.194;11.546;2023-06-04T04:56:46;96043.56;;;15.30;53.46
29239;BME280;16267;48.194;11.546;2023-06-04T04:59:12;96042.69;;;15.33;53.26
29239;BME280;16267;48.194;11.546;2023-06-04T05:01:38;96041.84;;;15.36;53.38
29239;BME280;16267;48.194;11.546;2023-06-04T05:04:04;96043.66;;;15.39;53.38
29239;BME280;16267;48.194;11.546;2023-06-04T05:06:29;96048.56;;;15.44;53.40
29239;BME280;16267;48.194;11.546;2023-06-04T05:08:55;96051.16;;;15.48;53.33
29239;BME280;16267;48.194;11.546;2023-06-04T05:11:21;96048.34;;;15.51;53.41
29239;BME280;16267;48.194;11.546;2023-06-04T05:13:46;96050.50;;;15.56;53.27
29239;BME280;16267;48.194;11.546;2023-06-04T05:16:12;96049.97;;;15.61;53.32
29239;BME280;16267;48.194;11.546;2023-06-04T05:18:38;96057.97;;;15.65;52.99
29239;BME280;16267;48.194;11.546;2023-06-04T05:21:10;96059.03;;;15.71;52.88
29239;BME280;16267;48.194;11.546;2023-06-04T05:23:38;96067.03;;;15.75;52.63
29239;BME280;16267;48.194;11.546;2023-06-04T05:26:05;96061.81;;;15.80;52.75
29239;BME280;16267;48.194;11.546;2023-06-04T05:28:31;96064.75;;;15.86;52.44
29239;BME280;16267;48.194;11.546;2023-06-04T05:31:00;96065.72;;;15.92;52.50
29239;BME280;16267;48.194;11.546;2023-06-04T05:33:27;96066.81;;;15.95;51.91
29239;BME280;16267;48.194;11.546;2023-06-04T05:35:53;96063.91;;;16.02;52.22
29239;BME280;16267;48.194;11.546;2023-06-04T05:38:25;96065.94;;;16.11;51.78
29239;BME280;16267;48.194;11.546;2023-06-04T05:40:53;96066.47;;;16.18;51.24
29239;BME280;16267;48.194;11.546;2023-06-04T05:43:20;96065.84;;;16.27;50.93
29239;BME280;16267;48.194;11.546;2023-06-04T05:45:46;96065.16;;;16.36;50.76
29239;BME280;16267;48.194;11.546;2023-06-04T05:48:12;96068.72;;;16.45;50.32
29239;BME280;16267;48.194;11.546;2023-06-04T05:50:38;96073.78;;;16.56;50.58
29239;BME280;16267;48.194;11.546;2023-06-04T05:53:04;96077.66;;;16.68;50.32
29239;BME280;16267;48.194;11.546;2023-06-04T05:55:29;96072.66;;;16.79;50.31
29239;BME280;16267;48.194;11.546;2023-06-04T05:57:55;96073.84;;;16.91;50.11
29239;BME280;16267;48.194;11.546;2023-06-04T06:00:22;96078.13;;;17.01;49.06
29239;BME280;16267;48.194;11.546;2023-06-04T06:02:50;96071.59;;;17.11;48.77
29239;BME280;16267;48.194;11.546;2023-06-04T06:05:17;96075.88;;;17.22;48.54
29239;BME280;16267;48.194;11.546;2023-06-04T06:07:44;96069.00;;;17.30;48.70
29239;BME280;16267;48.194;11.546;2023-06-04T06:10:10;96073.72;;;17.38;48.93
29239;BME280;16267;48.194;11.546;2023-06-04T06:12:36;96080.84;;;17.45;48.91
29239;BME280;16267;48.194;11.546;2023-06-04T06:15:02;96084.50;;;17.51;48.16
29239;BME280;16267;48.194;11.546;2023-06-04T06:17:28;96082.28;;;17.59;47.78
29239;BME280;16267;48.194;11.546;2023-06-04T06:19:54;96084.06;;;17.53;46.08
29239;BME280;16267;48.194;11.546;2023-06-04T06:22:21;96083.81;;;17.60;46.50
29239;BME280;16267;48.194;11.546;2023-06-04T06:24:47;96087.91;;;17.65;46.48
29239;BME280;16267;48.194;11.546;2023-06-04T06:27:16;96090.38;;;17.72;46.43
29239;BME280;16267;48.194;11.546;2023-06-04T06:29:43;96095.09;;;17.80;46.43
29239;BME280;16267;48.194;11.546;2023-06-04T06:32:12;96095.44;;;17.82;47.44
29239;BME280;16267;48.194;11.546;2023-06-04T06:34:38;96100.91;;;17.92;47.06
29239;BME280;16267;48.194;11.546;2023-06-04T06:37:05;96095.97;;;17.99;46.87
29239;BME280;16267;48.194;11.546;2023-06-04T06:39:31;96104.59;;;18.07;46.63
29239;BME280;16267;48.194;11.546;2023-06-04T06:41:57;96095.09;;;18.12;46.78
29239;BME280;16267;48.194;11.546;2023-06-04T06:44:23;96094.06;;;18.18;47.12
29239;BME280;16267;48.194;11.546;2023-06-04T06:46:49;96101.63;;;18.23;47.10
29239;BME280;16267;48.194;11.546;2023-06-04T06:49:15;96098.31;;;18.28;46.42
29239;BME280;16267;48.194;11.546;2023-06-04T06:51:41;96103.50;;;18.36;46.83
29239;BME280;16267;48.194;11.546;2023-06-04T06:54:10;96103.66;;;18.41;46.62
29239;BME280;16267;48.194;11.546;2023-06-04T06:56:36;96107.28;;;18.47;46.69
29239;BME280;16267;48.194;11.546;2023-06-04T06:59:02;96100.84;;;18.54;46.38
29239;BME280;16267;48.194;11.546;2023-06-04T07:01:28;96099.78;;;18.61;46.12
29239;BME280;16267;48.194;11.546;2023-06-04T07:03:53;96101.16;;;18.65;45.80
29239;BME280;16267;48.194;11.546;2023-06-04T07:06:19;96108.25;;;18.72;45.70
29239;BME280;16267;48.194;11.546;2023-06-04T07:08:45;96096.81;;;18.77;45.77
29239;BME280;16267;48.194;11.546;2023-06-04T07:11:13;96099.69;;;18.83;45.46
29239;BME280;16267;48.194;11.546;2023-06-04T07:13:39;96097.88;;;18.89;45.76
29239;BME280;16267;48.194;11.546;2023-06-04T07:16:05;96105.00;;;18.96;45.66
29239;BME280;16267;48.194;11.546;2023-06-04T07:18:32;96097.00;;;19.01;45.34
29239;BME280;16267;48.194;11.546;2023-06-04T07:20:58;96092.47;;;19.07;44.85
29239;BME280;16267;48.194;11.546;2023-06-04T07:23:24;96102.88;;;19.09;44.96
29239;BME280;16267;48.194;11.546;2023-06-04T07:25:50;96100.63;;;19.16;44.64
29239;BME280;16267;48.194;11.546;2023-06-04T07:28:16;96095.63;;;19.24;44.54
29239;BME280;16267;48.194;11.546;2023-06-04T07:30:45;96090.63;;;19.23;44.18
29239;BME280;16267;48.194;11.546;2023-06-04T07:33:11;96088.53;;;19.27;44.48
29239;BME280;16267;48.194;11.546;2023-06-04T07:35:37;96086.56;;;19.27;44.95
29239;BME280;16267;48.194;11.546;2023-06-04T07:38:03;96088.97;;;19.25;44.58
29239;BME280;16267;48.194;11.546;2023-06-04T07:40:28;96087.00;;;19.35;45.13
29239;BME280;16267;48.194;11.546;2023-06-04T07:42:54;96090.31;;;19.39;44.62
29239;BME280;16267;48.194;11.546;2023-06-04T07:45:20;96090.63;;;19.41;44.44
29239;BME280;16267;48.194;11.546;2023-06-04T07:47:46;96098.75;;;19.50;44.26
29239;BME280;16267;48.194;11.546;2023-06-04T07:50:12;96094.53;;;19.58;44.04
29239;BME280;16267;48.194;11.546;2023-06-04T07:52:38;96095.28;;;19.50;44.33
29239;BME280;16267;48.194;11.546;2023-06-04T07:55:04;96096.63;;;19.64;44.44
29239;BME280;16267;48.194;11.546;2023-06-04T07:57:30;96094.25;;;19.66;44.03
29239;BME280;16267;48.194;11.546;2023-06-04T07:59:57;96092.72;;;19.74;44.50
29239;BME280;16267;48.194;11.546;2023-06-04T08:02:23;96094.03;;;19.78;44.06
29239;BME280;16267;48.194;11.546;2023-06-04T08:04:49;96100.22;;;19.88;44.36
29239;BME280;16267;48.194;11.546;2023-06-04T08:07:15;96097.66;;;19.94;44.53
29239;BME280;16267;48.194;11.546;2023-06-04T08:09:41;96093.56;;;19.98;44.34
29239;BME280;16267;48.194;11.546;2023-06-04T08:12:07;96095.81;;;20.00;44.11
29239;BME280;16267;48.194;11.546;2023-06-04T08:14:32;96091.09;;;20.10;43.97
29239;BME280;16267;48.194;11.546;2023-06-04T08:16:58;96088.63;;;20.21;43.52
29239;BME280;16267;48.194;11.546;2023-06-04T08:19:24;96092.38;;;20.23;43.00
29239;BME280;16267;48.194;11.546;2023-06-04T08:21:50;96086.13;;;20.32;42.37
29239;BME280;16267;48.194;11.546;2023-06-04T08:24:16;96095.19;;;20.38;42.45
29239;BME280;16267;48.194;11.546;2023-06-04T08:26:42;96096.19;;;20.50;42.84
29239;BME280;16267;48.194;11.546;2023-06-04T08:29:07;96087.06;;;20.62;42.69
29239;BME280;16267;48.194;11.546;2023-06-04T08:31:33;96091.72;;;20.71;42.37
29239;BME280;16267;48.194;11.546;2023-06-04T08:33:59;96090.69;;;20.83;42.23
29239;BME280;16267;48.194;11.546;2023-06-04T08:36:27;96091.41;;;20.93;41.64
29239;BME280;16267;48.194;11.546;2023-06-04T08:38:53;96094.53;;;21.01;41.69
29239;BME280;16267;48.194;11.546;2023-06-04T08:41:34;96087.78;;;21.11;41.66
29239;BME280;16267;48.194;11.546;2023-06-04T08:44:01;96093.81;;;21.15;41.25
29239;BME280;16267;48.194;11.546;2023-06-04T08:46:32;96094.78;;;21.27;41.35
29239;BME280;16267;48.194;11.546;2023-06-04T08:49:00;96091.69;;;21.34;41.44
29239;BME280;16267;48.194;11.546;2023-06-04T08:51:33;96092.38;;;21.44;41.04
29239;BME280;16267;48.194;11.546;2023-06-04T08:53:59;96095.84;;;21.44;40.70
29239;BME280;16267;48.194;11.546;2023-06-04T08:56:26;96091.06;;;21.54;39.73
29239;BME280;16267;48.194;11.546;2023-06-04T08:58:57;96094.56;;;21.54;39.77
29239;BME280;16267;48.194;11.546;2023-06-04T09:01:25;96093.91;;;21.59;39.53
29239;BME280;16267;48.194;11.546;2023-06-04T09:03:51;96088.16;;;21.57;39.51
29239;BME280;16267;48.194;11.546;2023-06-04T09:06:17;96092.47;;;21.64;39.57
29239;BME280;16267;48.194;11.546;2023-06-04T09:08:43;96080.25;;;21.74;38.81
29239;BME280;16267;48.194;11.546;2023-06-04T09:11:13;96089.00;;;21.78;39.29
29239;BME280;16267;48.194;11.546;2023-06-04T09:13:40;96094.38;;;21.88;39.19
29239;BME280;16267;48.194;11.546;2023-06-04T09:16:08;96079.09;;;21.96;39.10
29239;BME280;16267;48.194;11.546;2023-06-04T09:18:34;96082.47;;;22.05;39.43
29239;BME280;16267;48.194;11.546;2023-06-04T09:21:05;96090.56;;;22.15;38.68
29239;BME280;16267;48.194;11.546;2023-06-04T09:26:09;96095.56;;;22.31;37.51
29239;BME280;16267;48.194;11.546;2023-06-04T09:28:45;96095.16;;;22.38;37.45
29239;BME280;16267;48.194;11.546;2023-06-04T09:31:16;96097.97;;;22.44;37.20
29239;BME280;16267;48.194;11.546;2023-06-04T09:33:51;96093.81;;;22.48;37.59
29239;BME280;16267;48.194;11.546;2023-06-04T09:36:17;96091.53;;;22.47;36.97
29239;BME280;16267;48.194;11.546;2023-06-04T09:38:45;96089.84;;;22.49;36.25
29239;BME280;16267;48.194;11.546;2023-06-04T09:41:16;96080.16;;;22.48;36.33
29239;BME280;16267;48.194;11.546;2023-06-04T09:43:42;96085.91;;;22.51;36.49
29239;BME280;16267;48.194;11.546;2023-06-04T09:46:09;96080.56;;;22.62;36.07
29239;BME280;16267;48.194;11.546;2023-06-04T09:48:36;96086.13;;;22.67;36.16
29239;BME280;16267;48.194;11.546;2023-06-04T09:51:13;96087.25;;;22.61;35.98
29239;BME280;16267;48.194;11.546;2023-06-04T09:53:54;96078.38;;;22.66;36.49
29239;BME280;16267;48.194;11.546;2023-06-04T09:56:21;96083.63;;;22.69;36.02
29239;BME280;16267;48.194;11.546;2023-06-04T09:58:49;96080.78;;;22.79;35.90
29239;BME280;16267;48.194;11.546;2023-06-04T10:01:15;96082.28;;;22.80;35.91
29239;BME280;16267;48.194;11.546;2023-06-04T10:03:47;96075.16;;;22.88;35.25
29239;BME280;16267;48.194;11.546;2023-06-04T10:06:16;96074.00;;;22.94;35.16
29239;BME280;16267;48.194;11.546;2023-06-04T10:08:43;96073.63;;;23.02;35.16
29239;BME280;16267;48.194;11.546;2023-06-04T10:11:09;96078.19;;;23.10;35.16
29239;BME280;16267;48.194;11.546;2023-06-04T10:13:45;96076.25;;;23.16;35.13
29239;BME280;16267;48.194;11.546;2023-06-04T10:16:13;96076.81;;;23.21;35.02
29239;BME280;16267;48.194;11.546;2023-06-04T10:18:39;96078.38;;;23.27;34.77
29239;BME280;16267;48.194;11.546;2023-06-04T10:21:06;96078.38;;;23.27;33.80
29239;BME280;16267;48.194;11.546;2023-06-04T10:23:33;96083.84;;;23.27;34.03
29239;BME280;16267;48.194;11.546;2023-06-04T10:25:59;96080.91;;;23.31;34.20
29239;BME280;16267;48.194;11.546;2023-06-04T10:28:26;96081.66;;;23.31;34.18
29239;BME280;16267;48.194;11.546;2023-06-04T10:30:51;96080.19;;;23.36;34.16
29239;BME280;16267;48.194;11.546;2023-06-04T10:33:21;96083.47;;;23.40;34.87
29239;BME280;16267;48.194;11.546;2023-06-04T10:35:53;96081.06;;;23.48;34.18
29239;BME280;16267;48.194;11.546;2023-06-04T10:38:20;96084.13;;;23.55;34.11
29239;BME280;16267;48.194;11.546;2023-06-04T10:40:47;96082.41;;;23.58;33.55
29239;BME280;16267;48.194;11.546;2023-06-04T10:43:15;96085.47;;;23.66;33.56
29239;BME280;16267;48.194;11.546;2023-06-04T10:45:45;96078.50;;;23.65;33.03
29239;BME280;16267;48.194;11.546;2023-06-04T10:48:15;96078.75;;;23.67;33.13
29239;BME280;16267;48.194;11.546;2023-06-04T10:50:50;96071.88;;;23.77;33.24
29239;BME280;16267;48.194;11.546;2023-06-04T10:53:18;96082.63;;;23.80;33.57
29239;BME280;16267;48.194;11.546;2023-06-04T10:55:49;96076.44;;;23.86;32.66
29239;BME280;16267;48.194;11.546;2023-06-04T10:58:15;96072.53;;;23.92;33.52
29239;BME280;16267;48.194;11.546;2023-06-04T11:00:46;96070.84;;;24.00;33.09
29239;BME280;16267;48.194;11.546;2023-06-04T11:03:14;96067.16;;;24.09;32.68
29239;BME280;16267;48.194;11.546;2023-06-04T11:05:45;96062.41;;;24.10;32.76
29239;BME280;16267;48.194;11.546;2023-06-04T11:08:13;96064.22;;;24.18;32.44
29239;BME280;16267;48.194;11.546;2023-06-04T11:10:46;96064.53;;;24.26;32.75
29239;BME280;16267;48.194;11.546;2023-06-04T11:13:12;96063.84;;;24.37;32.72
29239;BME280;16267;48.194;11.546;2023-06-04T11:15:45;96057.94;;;24.49;32.55
29239;BME280;16267;48.194;11.546;2023-06-04T11:18:19;96057.75;;;24.59;31.64
29239;BME280;16267;48.194;11.546;2023-06-04T11:20:48;96063.78;;;24.68;32.19
29239;BME280;16267;48.194;11.546;2023-06-04T11:23:15;96056.09;;;24.78;31.72
29239;BME280;16267;48.194;11.546;2023-06-04T11:25:43;96059.38;;;24.88;31.75
29239;BME280;16267;48.194;11.546;2023-06-04T11:28:16;96055.41;;;24.95;31.48
29239;BME280;16267;48.194;11.546;2023-06-04T11:30:59;96063.41;;;24.98;31.14
29239;BME280;16267;48.194;11.546;2023-06-04T11:33:29;96047.69;;;25.04;31.02
29239;BME280;16267;48.194;11.546;2023-06-04T11:35:55;96050.72;;;25.12;30.95
29239;BME280;16267;48.194;11.546;2023-06-04T11:38:21;96056.00;;;25.21;31.05
29239;BME280;16267;48.194;11.546;2023-06-04T11:41:05;96050.53;;;25.27;30.69
29239;BME280;16267;48.194;11.546;2023-06-04T11:43:32;96050.03;;;25.28;30.23
29239;BME280;16267;48.194;11.546;2023-06-04T11:46:06;96053.28;;;25.38;30.58
29239;BME280;16267;48.194;11.546;2023-06-04T11:48:34;96048.06;;;25.46;30.48
29239;BME280;16267;48.194;11.546;2023-06-04T11:51:06;96049.53;;;25.47;30.00
29239;BME280;16267;48.194;11.546;2023-06-04T11:53:33;96042.09;;;25.47;30.30
29239;BME280;16267;48.194;11.546;2023-06-04T11:56:00;96045.06;;;25.49;30.39
29239;BME280;16267;48.194;11.546;2023-06-04T11:58:26;96048.06;;;25.51;30.07
29239;BME280;16267;48.194;11.546;2023-06-04T12:00:52;96048.06;;;25.46;29.43
29239;BME280;16267;48.194;11.546;2023-06-04T12:03:40;96039.81;;;25.46;30.09
29239;BME280;16267;48.194;11.546;2023-06-04T12:06:17;96043.56;;;25.43;29.61
29239;BME280;16267;48.194;11.546;2023-06-04T12:08:52;96038.06;;;25.48;30.14
29239;BME280;16267;48.194;11.546;2023-06-04T12:11:33;96040.09;;;25.53;29.98
29239;BME280;16267;48.194;11.546;2023-06-04T12:14:06;96030.56;;;25.54;29.42
29239;BME280;16267;48.194;11.546;2023-06-04T12:16:33;96029.34;;;25.55;29.47
29239;BME280;16267;48.194;11.546;2023-06-04T12:19:10;96030.09;;;25.50;29.60
29239;BME280;16267;48.194;11.546;2023-06-04T12:21:38;96039.34;;;25.47;30.02
29239;BME280;16267;48.194;11.546;2023-06-04T12:24:13;96027.06;;;25.43;29.57
29239;BME280;16267;48.194;11.546;2023-06-04T12:26:41;96030.81;;;25.34;29.25
29239;BME280;16267;48.194;11.546;2023-06-04T12:29:14;96027.81;;;25.32;29.34
29239;BME280;16267;48.194;11.546;2023-06-04T12:31:45;96024.31;;;25.31;29.43
29239;BME280;16267;48.194;11.546;2023-06-04T12:34:14;96032.56;;;25.31;29.51
29239;BME280;16267;48.194;11.546;2023-06-04T12:36:40;96019.56;;;25.32;29.86
29239;BME280;16267;48.194;11.546;2023-06-04T12:39:06;96030.56;;;25.32;29.96
29239;BME280;16267;48.194;11.546;2023-06-04T12:41:33;96031.06;;;25.30;30.26
29239;BME280;16267;48.194;11.546;2023-06-04T12:44:00;96025.31;;;25.28;30.54
29239;BME280;16267;48.194;11.546;2023-06-04T12:46:26;96023.78;;;25.22;30.31
29239;BME280;16267;48.194;11.546;2023-06-04T12:48:54;96025.28;;;25.17;30.13
29239;BME280;16267;48.194;11.546;2023-06-04T12:51:21;96019.50;;;25.09;30.25
29239;BME280;16267;48.194;11.546;2023-06-04T12:53:47;96025.75;;;25.10;30.08
29239;BME280;16267;48.194;11.546;2023-06-04T12:56:13;96025.47;;;25.08;29.96
29239;BME280;16267;48.194;11.546;2023-06-04T12:58:39;96025.72;;;25.04;30.32
29239;BME280;16267;48.194;11.546;2023-06-04T13:01:05;96013.97;;;24.98;31.04
29239;BME280;16267;48.194;11.546;2023-06-04T13:03:32;96008.75;;;25.00;30.88